CYQK

Kenora Airport

Kenora, Ontario, Canada
METAR CYQK 190300Z 19010KT 15SM OVC006 M05/M06 A2955 RMK SC8 SLP032
Observed Flight Rules
Jan-19 @ 03:00 UTC (44 minutes ago) Instrument Flight Rules
Wind Visibility Clouds
190° at 10 knots 15 miles
  • Overcast at 600' AGL
Temperatures Readings
Current -5°C / 23°F
Dewpoint -6°C / 21°F
Humidity 93%
Altimeter 29.55" Hg
Pressure 1003.2 hPa
Elevation 411
METAR CYQK 190300Z 19010KT 15SM OVC006 M05/M06 A2955 RMK SC8 SLP032
Observed Flight Rules
Jan-19 @ 03:00 UTC
(44 minutes ago)
IFR
Wind Visibility
190° at 10 knots 15 miles
Clouds
  • Overcast at 600' AGL
Temperature Dewpoint
-5°C / 23°F -6°C / 21°F
Humidity Altimeter Pressure
93% 29.55" Hg 1003.2 hPa